Shoyo Maru — JLOJ — position and weather

sailwx.info

Track history (hours):
 
Tides and Currents Weather Stations Pressure Air Temp Water Temp Dewpoint Dewpoint Depression Visibility Wind Speed Wind Dir Waves Ship Positions

Oceanographic research ship Shoyo Maru (Japan)

Detailed information on ship capabilities available from University of Delaware's Ocean Information Center.

Last reported at 2018-Jan-12 08:00 UTC. Time now 2018-Jan-22 21:53 UTC.
Position N 34°59' E 139°42'.
Warning: this ship's position is 10 days out of date.

Length 87.6 m; beam 14 m.

Type: Other ship. MMSI: 431465000.

Date/timePositionNaut miles runAvg speedWind from/ knotsBaromVisibWave heightAir tempDewpointWater temp
2018-Jan-12 08:00N 34°59' E 139°42'714.8
2018-Jan-12 07:30N 35°07' E 139°44'714.4
2018-Jan-12 07:00N 35°13' E 139°46'611.1
2018-Jan-12 06:30N 35°18' E 139°44'612.0
2018-Jan-12 06:00N 35°24' E 139°43'714.6
2018-Jan-12 05:30N 35°29' E 139°50'612.4
2018-Jan-12 05:01N 35°35' E 139°48'4 8.3
2018-Jan-12 04:30N 35°39' E 139°46'0 0.1
2018-Jan-12 03:56N 35°39' E 139°46'0 0.0
2018-Jan-12 03:20N 35°39' E 139°46'0 0.0
2018-Jan-12 02:59N 35°39' E 139°46'  
Track history (hours):
 
Tides and Currents Weather Stations Pressure Air Temp Water Temp Dewpoint Dewpoint Depression Visibility Wind Speed Wind Dir Waves Ship Positions

Oceanographic research ship Shoyo Maru (Japan)

Detailed information on ship capabilities available from University of Delaware's Ocean Information Center.

Last reported at 2018-Jan-12 08:00 UTC. Time now 2018-Jan-22 21:53 UTC.
Position N 34°59' E 139°42'.
Warning: this ship's position is 10 days out of date.

Length 87.6 m; beam 14 m.

Type: Other ship. MMSI: 431465000.

Date/timePositionNaut miles runAvg speedWind from/ knotsBaromVisibWave heightAir tempDewpointWater temp
2018-Jan-12 08:00N 34°59' E 139°42'714.8
2018-Jan-12 07:30N 35°07' E 139°44'714.4
2018-Jan-12 07:00N 35°13' E 139°46'611.1
2018-Jan-12 06:30N 35°18' E 139°44'612.0
2018-Jan-12 06:00N 35°24' E 139°43'714.6
2018-Jan-12 05:30N 35°29' E 139°50'612.4
2018-Jan-12 05:01N 35°35' E 139°48'4 8.3
2018-Jan-12 04:30N 35°39' E 139°46'0 0.1
2018-Jan-12 03:56N 35°39' E 139°46'0 0.0
2018-Jan-12 03:20N 35°39' E 139°46'0 0.0
2018-Jan-12 02:59N 35°39' E 139°46'  

Dump ship's entire track history